A- A+ FrançaisEnglishEspañol中国

Services sur Internet Soldes sur Internet Des idées de cadeaux Météo Météo aéro

La météo à : Autours de vous Tarbes-Lourdes-PyrénéesPoitiers-Biard Strasbourg-EntzheimTarbes-Laloubere

La météo aéronautique pour les pilotes, la préparation du vol avec les METAR (METeorological Aerodrome Report, message d'observation des conditions météorologiques pour l'aviation) et Les TAF (Terminal Aerodrome Forecast : message de prévision à court terme des conditions météorologiques pour l'aviation). Et les autres ressources comme les VAC (Visual Approch Chart) et les NOTAM (Notice To Airman) pour préprer les vols.

Aéroport Mo I Rana Rossvoll (Norvège) / OACI ENRA/ IATA MQN

L'altitude de l'aéroport Mo I Rana Rossvoll est de 70 m = 230 ft. Il est situé à proximité de Mo i Rana (Norvège). La météo générale à 5 jours est disponible pour Tverrånes situé à 8 km.

METAR de l'aéroport Mo I Rana Rossvoll - ENRA

ENRA 100950Z 08005KT 9999 VCSH SCT012 BKN020 M06/M07 Q1006

Décodage du METAR de l'aéroport Mo I Rana Rossvoll (NO)

METAR émis par ENRA le mardi 10 décembre 2019 à 09:50 heure TU, il y a 14 minutes.

La visibilité est de supérieure à 10 km = supérieure à 6.2 sm.

La température est de -6°C = 21 °F et le point rosée est de -7°C = 19 °F . Ce qui correspond à 93% d'humidité relative.

Le QNH est de 1006 hPa = 29.71 inHg

Vent de 5 kt = 9 km/h, orienté à 80°.

Nuages : Nuages épars à 1200 ft = 370 mètres. Couverture nuageuse fragmentée à 2000 ft = 610 mètres.

VCSH

TAF de l'aéroport Mo I Rana Rossvoll - ENRA

ENRA 100800Z 1009/1018 10008KT 9999 FEW008 BKN030

ENRA 100800Z 1009/1018 10008KT 9999 quelques nuages à 008 couverture nuageuse fragmentée à 030

Aéroport à proximité de Mo I Rana Rossvoll

Météo générale à 5 jours à Tverrånes (8 km)Aéroport Hemavan (71 km)Aéroport Mosjoen Kjaerstad (81 km)Aéroport Sandnessjoen Stokka (94 km)Aéroport Bodo (101 km)Aéroport Bronnoysund Bronnoy (138 km)Aéroport Rost (161 km)

Vue aérienne de l'aéroport Mo I Rana Rossvoll

NOTAM de l'aéroport Mo I Rana Rossvoll

Les NOTAM sont fournis sans aucune garantie de leur actualité. Le pilote est le seul responsable de la vérification de sa validité avant de l'utiliser opérationnellement pour préparer un vol ou l'utiliser lors de sa navigation.

Pas de NOTAM

Sources des données